Aviation Digital Data Service (ADDS)

Output produced by METARs form (1320 UTC 23 January 2019)
found at http://www.aviationweather.gov/metar/data/
 
Forecast for: FKKD (DOUALA (CIV/MIL), CM)
Text: TAF FKKD 231100Z 2312/2418 24007KT 7000 BKN016 FEW020CB
Forecast period: 1200 UTC 23 January 2019 to 1800 UTC 24 January 2019
Forecast type: FROM: standard forecast or significant change
Winds: from the WSW (240 degrees) at 8 MPH (7 knots; 3.6 m/s)
Visibility: 4 miles (7 km)
Ceiling: 1600 feet AGL
Clouds: broken clouds at 1600 feet AGL
few clouds at 2000 feet AGL
Weather: no significant weather forecast for this period
Text: TEMPO 2322/2405 TS BKN013 FEW016CB
Forecast period: 2200 UTC 23 January 2019 to 0500 UTC 24 January 2019
Forecast type: TEMPORARY: The following changes expected for less than half the time period
Visibility: missing
Ceiling: 1300 feet AGL
Clouds: broken clouds at 1300 feet AGL
few clouds at 1600 feet AGL
Weather: TS  (thunderstorm)
Text: TEMPO 2405/2408 2000 BR
Forecast period: 0500 to 0800 UTC 24 January 2019
Forecast type: TEMPORARY: The following changes expected for less than half the time period
Visibility: 1.24 miles (2.00 km)
Ceiling: unknown
Clouds: missing
Weather: BR  (mist)